QTR39C EDDF-OTHH
Flight info
| Callsign | QTR39C |
|---|---|
| Flight time | N/A |
| Altitude | 37000 |
| Route | CINDY5L CINDY Z74 LAMPU DCT NOMBO Y161 MAH DCT LATLO/N0479F390 DCT OBEDI DCT KLAGY DCT MAGAM DCT TIVNU DCT RETRA/N0483F410 DCT PINDO DCT PIKOS DCT GERMI DCT MIL UL617 SIT UL607 PAXIS Y707 OBRAN L321 REXUM M872 WEJ L604 GAS G662 KSA M440 SITER DCT LADBO T142 LAEEB |
| Aircraft | A359/H-SDE2E3GHIJ3J4J5LM1ORWXY/LB1D1 |
Departure
| Time | 2026-04-17 10:04 |
|---|---|
| Airport | Frankfurt Main Airport (EDDF) |
Arrival
| Time | N/A |
|---|---|
| Airport | Hamad International Airport (OTHH) |
| Time | Latitude | Longitude | Altitude | Speed | Heading |
|---|---|---|---|---|---|
| 2026-04-17 09:12 | 50.05175 | 8.59184 | 371 ft | 0 kts | 339° |
| 2026-04-17 09:47 | 50.05165 | 8.59190 | 365 ft | 3 kts | 339° |
| 2026-04-17 09:47 | 50.05146 | 8.59201 | 371 ft | 3 kts | 338° |
| 2026-04-17 09:47 | 50.05127 | 8.59214 | 368 ft | 3 kts | 332° |
| 2026-04-17 09:48 | 50.05110 | 8.59230 | 367 ft | 3 kts | 325° |
| 2026-04-17 09:48 | 50.05093 | 8.59248 | 366 ft | 4 kts | 320° |
| 2026-04-17 09:48 | 50.05078 | 8.59269 | 368 ft | 4 kts | 316° |
| 2026-04-17 09:48 | 50.05064 | 8.59291 | 370 ft | 3 kts | 320° |
| 2026-04-17 09:49 | 50.05048 | 8.59308 | 368 ft | 3 kts | 339° |
| 2026-04-17 09:49 | 50.05029 | 8.59319 | 371 ft | 3 kts | 339° |
| 2026-04-17 09:49 | 50.05010 | 8.59330 | 369 ft | 3 kts | 339° |
| 2026-04-17 09:49 | 50.04991 | 8.59341 | 372 ft | 3 kts | 339° |
| 2026-04-17 09:50 | 50.04975 | 8.59350 | 371 ft | 1 kts | 339° |
| 2026-04-17 09:50 | 50.04988 | 8.59344 | 371 ft | 5 kts | 339° |
| 2026-04-17 09:50 | 50.05002 | 8.59337 | 375 ft | 0 kts | 339° |
| 2026-04-17 09:53 | 50.05010 | 8.59332 | 369 ft | 4 kts | 339° |
| 2026-04-17 09:53 | 50.05059 | 8.59293 | 376 ft | 10 kts | 321° |
| 2026-04-17 09:54 | 50.05069 | 8.59174 | 368 ft | 13 kts | 256° |
| 2026-04-17 09:54 | 50.05036 | 8.59030 | 373 ft | 15 kts | 250° |
| 2026-04-17 09:54 | 50.04999 | 8.58875 | 369 ft | 16 kts | 250° |
| 2026-04-17 09:54 | 50.04957 | 8.58707 | 371 ft | 18 kts | 249° |
| 2026-04-17 09:55 | 50.04913 | 8.58518 | 368 ft | 18 kts | 250° |
| 2026-04-17 09:55 | 50.04873 | 8.58344 | 373 ft | 17 kts | 250° |
| 2026-04-17 09:55 | 50.04834 | 8.58177 | 371 ft | 15 kts | 249° |
| 2026-04-17 09:55 | 50.04792 | 8.58019 | 372 ft | 17 kts | 242° |
| 2026-04-17 09:56 | 50.04710 | 8.57881 | 368 ft | 18 kts | 234° |
| 2026-04-17 09:56 | 50.04659 | 8.57693 | 371 ft | 20 kts | 250° |
| 2026-04-17 09:56 | 50.04611 | 8.57494 | 369 ft | 19 kts | 249° |
| 2026-04-17 09:56 | 50.04565 | 8.57304 | 368 ft | 17 kts | 249° |
| 2026-04-17 09:57 | 50.04523 | 8.57123 | 369 ft | 19 kts | 250° |
| 2026-04-17 09:57 | 50.04476 | 8.56928 | 373 ft | 19 kts | 249° |
| 2026-04-17 09:57 | 50.04427 | 8.56727 | 371 ft | 21 kts | 249° |
| 2026-04-17 09:57 | 50.04374 | 8.56505 | 368 ft | 20 kts | 249° |
| 2026-04-17 09:58 | 50.04329 | 8.56316 | 363 ft | 20 kts | 250° |
| 2026-04-17 09:58 | 50.04283 | 8.56122 | 367 ft | 20 kts | 250° |
| 2026-04-17 09:58 | 50.04232 | 8.55908 | 368 ft | 22 kts | 249° |
| 2026-04-17 09:58 | 50.04180 | 8.55693 | 364 ft | 19 kts | 249° |
| 2026-04-17 09:59 | 50.04131 | 8.55487 | 360 ft | 21 kts | 250° |
| 2026-04-17 09:59 | 50.04081 | 8.55275 | 367 ft | 19 kts | 250° |
| 2026-04-17 09:59 | 50.04033 | 8.55073 | 366 ft | 21 kts | 250° |
| 2026-04-17 09:59 | 50.03980 | 8.54855 | 366 ft | 22 kts | 249° |
| 2026-04-17 10:00 | 50.03932 | 8.54652 | 363 ft | 20 kts | 249° |
| 2026-04-17 10:00 | 50.03880 | 8.54437 | 362 ft | 19 kts | 249° |
| 2026-04-17 10:00 | 50.03808 | 8.54246 | 356 ft | 21 kts | 244° |
| 2026-04-17 10:00 | 50.03755 | 8.54037 | 360 ft | 18 kts | 250° |
| 2026-04-17 10:01 | 50.03709 | 8.53840 | 357 ft | 20 kts | 250° |
| 2026-04-17 10:01 | 50.03656 | 8.53624 | 354 ft | 23 kts | 249° |
| 2026-04-17 10:01 | 50.03597 | 8.53388 | 352 ft | 24 kts | 248° |
| 2026-04-17 10:01 | 50.03543 | 8.53163 | 353 ft | 18 kts | 250° |
| 2026-04-17 10:02 | 50.03495 | 8.52966 | 348 ft | 21 kts | 249° |
| 2026-04-17 10:02 | 50.03442 | 8.52758 | 350 ft | 21 kts | 248° |
| 2026-04-17 10:02 | 50.03409 | 8.52632 | 349 ft | 9 kts | 241° |
| 2026-04-17 10:02 | 50.03351 | 8.52594 | 350 ft | 10 kts | 179° |
| 2026-04-17 10:03 | 50.03271 | 8.52595 | 352 ft | 15 kts | 180° |
| 2026-04-17 10:03 | 50.02973 | 8.52598 | 342 ft | 77 kts | 179° |
| 2026-04-17 10:03 | 50.02214 | 8.52606 | 346 ft | 139 kts | 180° |
| 2026-04-17 10:03 | 50.01097 | 8.52613 | 483 ft | 176 kts | 180° |
| 2026-04-17 10:04 | 49.99881 | 8.52621 | 1237 ft | 173 kts | 180° |
| 2026-04-17 10:04 | 49.98669 | 8.52647 | 1872 ft | 179 kts | 178° |
| 2026-04-17 10:04 | 49.97367 | 8.52755 | 2148 ft | 196 kts | 176° |
| 2026-04-17 10:04 | 49.95958 | 8.52890 | 2453 ft | 208 kts | 177° |
| 2026-04-17 10:05 | 49.94493 | 8.53014 | 2947 ft | 212 kts | 177° |
| 2026-04-17 10:05 | 49.93015 | 8.53128 | 3483 ft | 214 kts | 178° |
| 2026-04-17 10:05 | 49.91494 | 8.53240 | 3912 ft | 223 kts | 178° |
| 2026-04-17 10:05 | 49.89922 | 8.53352 | 4511 ft | 228 kts | 178° |
| 2026-04-17 10:06 | 49.88332 | 8.53465 | 5168 ft | 229 kts | 178° |
| 2026-04-17 10:06 | 49.86733 | 8.53573 | 5802 ft | 231 kts | 178° |
| 2026-04-17 10:06 | 49.85125 | 8.53681 | 6463 ft | 232 kts | 178° |
| 2026-04-17 10:06 | 49.83503 | 8.53788 | 7072 ft | 234 kts | 178° |
| 2026-04-17 10:07 | 49.81860 | 8.53901 | 7638 ft | 238 kts | 178° |
| 2026-04-17 10:07 | 49.80215 | 8.54335 | 8193 ft | 243 kts | 160° |
| 2026-04-17 10:07 | 49.78809 | 8.55804 | 8757 ft | 249 kts | 132° |
| 2026-04-17 10:07 | 49.78006 | 8.58239 | 9047 ft | 266 kts | 101° |
| 2026-04-17 10:08 | 49.77816 | 8.61175 | 9365 ft | 281 kts | 92° |
| 2026-04-17 10:08 | 49.77751 | 8.64241 | 9888 ft | 288 kts | 91° |
| 2026-04-17 10:08 | 49.77679 | 8.67361 | 10412 ft | 294 kts | 92° |
| 2026-04-17 10:08 | 49.77589 | 8.70600 | 10693 ft | 309 kts | 92° |
| 2026-04-17 10:09 | 49.77482 | 8.74003 | 10927 ft | 324 kts | 92° |
| 2026-04-17 10:09 | 49.77366 | 8.77558 | 11169 ft | 338 kts | 92° |
| 2026-04-17 10:09 | 49.77238 | 8.81259 | 11404 ft | 351 kts | 92° |
| 2026-04-17 10:09 | 49.77101 | 8.85096 | 11637 ft | 363 kts | 92° |
| 2026-04-17 10:10 | 49.76959 | 8.89039 | 11986 ft | 371 kts | 92° |
| 2026-04-17 10:10 | 49.76815 | 8.92992 | 12423 ft | 375 kts | 92° |
| 2026-04-17 10:10 | 49.76666 | 8.97038 | 12882 ft | 378 kts | 92° |
| 2026-04-17 10:11 | 49.76361 | 9.05225 | 13794 ft | 384 kts | 92° |
| 2026-04-17 10:11 | 49.76110 | 9.09412 | 14190 ft | 389 kts | 98° |
| 2026-04-17 10:11 | 49.75542 | 9.13530 | 14581 ft | 393 kts | 103° |
| 2026-04-17 10:11 | 49.74744 | 9.17583 | 14956 ft | 397 kts | 112° |
| 2026-04-17 10:12 | 49.73355 | 9.21267 | 15388 ft | 400 kts | 125° |
| 2026-04-17 10:12 | 49.71664 | 9.24644 | 15796 ft | 403 kts | 130° |
| 2026-04-17 10:12 | 49.69817 | 9.27914 | 16220 ft | 405 kts | 132° |
| 2026-04-17 10:12 | 49.67907 | 9.31138 | 16631 ft | 408 kts | 133° |
| 2026-04-17 10:13 | 49.65978 | 9.34374 | 17030 ft | 411 kts | 132° |
| 2026-04-17 10:13 | 49.64042 | 9.37654 | 17433 ft | 414 kts | 132° |
| 2026-04-17 10:13 | 49.61973 | 9.40757 | 17815 ft | 417 kts | 141° |
| 2026-04-17 10:13 | 49.59620 | 9.43395 | 18219 ft | 419 kts | 146° |
| 2026-04-17 10:14 | 49.57162 | 9.45850 | 18597 ft | 422 kts | 149° |
| 2026-04-17 10:14 | 49.54645 | 9.48197 | 18926 ft | 425 kts | 150° |
| 2026-04-17 10:14 | 49.52087 | 9.50503 | 19236 ft | 428 kts | 150° |
| 2026-04-17 10:14 | 49.49510 | 9.52804 | 19585 ft | 430 kts | 150° |
| 2026-04-17 10:15 | 49.46913 | 9.55126 | 19932 ft | 432 kts | 150° |
| 2026-04-17 10:15 | 49.44314 | 9.57462 | 20266 ft | 434 kts | 150° |
| 2026-04-17 10:15 | 49.41702 | 9.59820 | 20600 ft | 436 kts | 150° |
| 2026-04-17 10:15 | 49.39082 | 9.62193 | 20935 ft | 439 kts | 150° |
| 2026-04-17 10:16 | 49.36448 | 9.64587 | 21250 ft | 441 kts | 150° |
| 2026-04-17 10:16 | 49.33941 | 9.67312 | 21573 ft | 444 kts | 140° |
| 2026-04-17 10:16 | 49.31620 | 9.70451 | 21936 ft | 445 kts | 137° |
| 2026-04-17 10:16 | 49.29375 | 9.73724 | 22277 ft | 447 kts | 136° |
| 2026-04-17 10:17 | 49.27157 | 9.77090 | 22579 ft | 449 kts | 135° |
| 2026-04-17 10:17 | 49.24954 | 9.80491 | 22905 ft | 451 kts | 135° |
| 2026-04-17 10:17 | 49.22736 | 9.83923 | 23150 ft | 455 kts | 134° |
| 2026-04-17 10:17 | 49.20501 | 9.87366 | 23435 ft | 458 kts | 134° |
| 2026-04-17 10:18 | 49.18270 | 9.90782 | 23742 ft | 460 kts | 135° |
| 2026-04-17 10:18 | 49.16000 | 9.94238 | 24004 ft | 462 kts | 135° |
| 2026-04-17 10:18 | 49.13717 | 9.97700 | 24258 ft | 463 kts | 135° |
| 2026-04-17 10:18 | 49.11424 | 10.01167 | 24498 ft | 465 kts | 135° |
| 2026-04-17 10:19 | 49.09118 | 10.04648 | 24756 ft | 467 kts | 135° |
| 2026-04-17 10:19 | 49.06806 | 10.08131 | 25049 ft | 467 kts | 135° |
| 2026-04-17 10:19 | 49.04486 | 10.11599 | 25354 ft | 468 kts | 136° |
| 2026-04-17 10:19 | 49.02888 | 10.13905 | 25518 ft | 469 kts | 137° |
| 2026-04-17 10:20 | 49.00488 | 10.17288 | 25778 ft | 471 kts | 137° |
| 2026-04-17 10:20 | 48.98055 | 10.20675 | 25971 ft | 475 kts | 137° |
| 2026-04-17 10:20 | 48.95613 | 10.24070 | 26235 ft | 477 kts | 137° |
| 2026-04-17 10:20 | 48.93166 | 10.27487 | 26516 ft | 478 kts | 137° |
| 2026-04-17 10:21 | 48.90719 | 10.30920 | 26809 ft | 480 kts | 137° |
| 2026-04-17 10:21 | 48.88291 | 10.34333 | 27115 ft | 482 kts | 137° |
| 2026-04-17 10:21 | 48.85823 | 10.37803 | 27417 ft | 484 kts | 137° |
| 2026-04-17 10:21 | 48.83350 | 10.41279 | 27720 ft | 486 kts | 137° |
| 2026-04-17 10:22 | 48.80890 | 10.44821 | 28049 ft | 488 kts | 135° |
| 2026-04-17 10:22 | 48.78524 | 10.48524 | 28378 ft | 490 kts | 133° |
| 2026-04-17 10:22 | 48.76201 | 10.52321 | 28702 ft | 493 kts | 132° |
| 2026-04-17 10:22 | 48.73877 | 10.56158 | 29005 ft | 495 kts | 132° |
| 2026-04-17 10:23 | 48.71536 | 10.60009 | 29323 ft | 498 kts | 133° |
| 2026-04-17 10:23 | 48.69168 | 10.63860 | 29677 ft | 500 kts | 133° |
| 2026-04-17 10:23 | 48.66778 | 10.67699 | 30004 ft | 502 kts | 133° |
| 2026-04-17 10:23 | 48.64371 | 10.71539 | 30328 ft | 504 kts | 133° |
| 2026-04-17 10:24 | 48.61943 | 10.75394 | 30608 ft | 507 kts | 134° |
| 2026-04-17 10:24 | 48.59500 | 10.79258 | 30869 ft | 509 kts | 134° |
| 2026-04-17 10:24 | 48.57078 | 10.83090 | 31115 ft | 512 kts | 133° |
| 2026-04-17 10:24 | 48.54592 | 10.87049 | 31363 ft | 514 kts | 133° |
| 2026-04-17 10:25 | 48.52159 | 10.90938 | 31617 ft | 517 kts | 133° |
| 2026-04-17 10:25 | 48.49691 | 10.94886 | 31848 ft | 519 kts | 133° |
| 2026-04-17 10:25 | 48.47173 | 10.98902 | 32080 ft | 521 kts | 133° |
| 2026-04-17 10:25 | 48.44661 | 11.02848 | 32307 ft | 523 kts | 134° |
| 2026-04-17 10:26 | 48.42155 | 11.06745 | 32594 ft | 524 kts | 134° |
| 2026-04-17 10:26 | 48.39614 | 11.10677 | 32941 ft | 523 kts | 134° |
| 2026-04-17 10:26 | 48.37074 | 11.14603 | 33262 ft | 523 kts | 134° |
| 2026-04-17 10:26 | 48.34537 | 11.18525 | 33574 ft | 523 kts | 134° |
| 2026-04-17 10:27 | 48.32000 | 11.22447 | 33880 ft | 523 kts | 134° |
| 2026-04-17 10:27 | 48.29461 | 11.26371 | 34205 ft | 523 kts | 134° |
| 2026-04-17 10:27 | 48.27044 | 11.30454 | 34472 ft | 523 kts | 127° |
| 2026-04-17 10:27 | 48.24989 | 11.34951 | 34773 ft | 521 kts | 121° |
| 2026-04-17 10:28 | 48.23117 | 11.39602 | 35061 ft | 520 kts | 119° |
| 2026-04-17 10:28 | 48.21309 | 11.44296 | 35348 ft | 520 kts | 118° |
| 2026-04-17 10:28 | 48.19532 | 11.49010 | 35633 ft | 519 kts | 118° |
| 2026-04-17 10:28 | 48.17766 | 11.53719 | 35934 ft | 519 kts | 118° |
| 2026-04-17 10:29 | 48.15996 | 11.58429 | 36223 ft | 518 kts | 118° |
| 2026-04-17 10:29 | 48.14222 | 11.63123 | 36505 ft | 518 kts | 118° |
| 2026-04-17 10:29 | 48.12439 | 11.67818 | 36750 ft | 519 kts | 118° |
| 2026-04-17 10:29 | 48.10650 | 11.72504 | 37009 ft | 518 kts | 118° |
| 2026-04-17 10:30 | 48.08873 | 11.77144 | 37214 ft | 519 kts | 118° |
| 2026-04-17 10:30 | 48.05268 | 11.86523 | 37229 ft | 518 kts | 119° |
| 2026-04-17 10:31 | 48.01662 | 11.95874 | 37243 ft | 518 kts | 119° |
| 2026-04-17 10:31 | 47.98065 | 12.05168 | 37230 ft | 517 kts | 119° |
| 2026-04-17 10:32 | 47.94464 | 12.14444 | 37228 ft | 517 kts | 119° |
| 2026-04-17 10:32 | 47.90863 | 12.23687 | 37228 ft | 517 kts | 119° |
| 2026-04-17 10:33 | 47.87231 | 12.32977 | 37224 ft | 517 kts | 119° |
| 2026-04-17 10:33 | 47.83605 | 12.42222 | 37225 ft | 518 kts | 119° |
| 2026-04-17 10:34 | 47.79981 | 12.51429 | 37225 ft | 518 kts | 119° |